Time;durP1;ratioP1;P1;durP2;ratioP2;P2;SDS_P1;SDS_P2;PMS_P1;PMS_P2;Temp;Humidity;BMP_temperature;BMP_pressure;BME280_temperature;BME280_humidity;BME280_pressure;Samples;Min_cycle;Max_cycle;Signal;HPM_P1;HPM_P2
2023/02/08 00:02:06;;;;;;;2.10;1.90;;;20.20;56.30;;;;;;6232365;23;20488;-86
2023/02/08 00:04:34;;;;;;;2.33;2.13;;;20.30;56.40;;;;;;6218363;23;20573;-86
2023/02/08 00:07:01;;;;;;;2.50;2.30;;;20.20;56.30;;;;;;6217879;23;20485;-86
2023/02/08 00:09:28;;;;;;;2.30;2.17;;;20.20;56.30;;;;;;6218014;23;20400;-86
2023/02/08 00:11:54;;;;;;;2.90;2.00;;;20.20;56.30;;;;;;6218035;23;20405;-90
2023/02/08 00:14:21;;;;;;;2.50;2.30;;;20.20;56.30;;;;;;6217897;23;20537;-85
2023/02/08 00:16:48;;;;;;;2.43;2.20;;;20.20;56.30;;;;;;6217457;23;20403;-86
2023/02/08 00:19:15;;;;;;;2.37;2.17;;;20.20;56.30;;;;;;6217344;23;20408;-86
2023/02/08 00:21:43;;;;;;;3.03;2.70;;;20.20;56.30;;;;;;6217929;23;20408;-86
2023/02/08 00:24:10;;;;;;;2.43;2.20;;;20.20;56.30;;;;;;6217650;23;20424;-90
2023/02/08 00:26:36;;;;;;;2.90;2.60;;;20.20;56.20;;;;;;6217741;23;20406;-86
2023/02/08 00:29:04;;;;;;;2.27;2.17;;;20.20;56.20;;;;;;6217710;23;20401;-86
2023/02/08 00:31:30;;;;;;;2.20;2.10;;;20.20;56.20;;;;;;6217867;23;20774;-91
2023/02/08 00:33:57;;;;;;;2.17;2.00;;;20.30;56.30;;;;;;6217550;23;20477;-85
2023/02/08 00:36:24;;;;;;;2.23;2.13;;;20.10;56.10;;;;;;6217716;23;20891;-86
2023/02/08 00:38:52;;;;;;;2.70;2.50;;;20.20;56.20;;;;;;6217284;23;20429;-85
2023/02/08 00:41:19;;;;;;;2.70;2.50;;;20.10;56.10;;;;;;6217605;23;20398;-85
2023/02/08 00:43:45;;;;;;;2.73;2.40;;;20.10;56.10;;;;;;6218079;23;20423;-86
2023/02/08 00:46:12;;;;;;;2.53;2.33;;;20.20;56.20;;;;;;6217314;23;20413;-85
2023/02/08 00:48:39;;;;;;;2.53;2.33;;;20.20;56.20;;;;;;6217407;23;20404;-85
2023/02/08 00:51:08;;;;;;;2.50;2.30;;;20.10;56.10;;;;;;6217518;23;20728;-86
2023/02/08 00:53:36;;;;;;;2.43;2.23;;;20.10;56.10;;;;;;6217260;23;20888;-85
2023/02/08 00:56:05;;;;;;;2.63;2.43;;;20.40;56.30;;;;;;6217001;23;20451;-85
2023/02/08 00:58:32;;;;;;;2.77;2.57;;;20.10;56.10;;;;;;6217295;23;20409;-86
2023/02/08 01:00:59;;;;;;;2.47;2.27;;;20.10;56.10;;;;;;6217100;23;20398;-86
2023/02/08 01:03:26;;;;;;;3.10;2.30;;;20.10;56.10;;;;;;6217360;23;20493;-85
2023/02/08 01:05:53;;;;;;;2.60;2.40;;;20.10;56.10;;;;;;6217583;23;20427;-85
2023/02/08 01:08:20;;;;;;;2.40;2.30;;;20.10;56.10;;;;;;6217129;23;20893;-92
2023/02/08 01:10:47;;;;;;;2.00;1.80;;;20.10;56.00;;;;;;6217351;23;20413;-86
2023/02/08 01:13:15;;;;;;;2.73;2.53;;;20.10;56.00;;;;;;6216706;23;20398;-86
2023/02/08 01:15:42;;;;;;;2.33;2.23;;;20.10;56.10;;;;;;6217317;23;20456;-85
2023/02/08 01:18:09;;;;;;;2.40;2.20;;;20.10;56.00;;;;;;6217173;23;20398;-85
2023/02/08 01:20:36;;;;;;;2.47;2.27;;;20.00;56.00;;;;;;6217280;23;20402;-85
2023/02/08 01:23:03;;;;;;;2.60;2.40;;;20.10;56.00;;;;;;6216667;23;20904;-85
2023/02/08 01:25:31;;;;;;;2.77;2.47;;;20.00;55.90;;;;;;6216613;23;20900;-85
2023/02/08 01:27:58;;;;;;;2.57;2.37;;;20.00;55.90;;;;;;6216998;23;20401;-85
2023/02/08 01:30:26;;;;;;;2.30;2.10;;;20.00;55.90;;;;;;6216866;23;20408;-85
2023/02/08 01:32:53;;;;;;;2.43;2.27;;;20.00;56.00;;;;;;6216476;23;20976;-86
2023/02/08 01:35:19;;;;;;;2.80;2.60;;;20.00;55.90;;;;;;6216596;23;20960;-85
2023/02/08 01:37:46;;;;;;;2.67;2.30;;;20.00;55.90;;;;;;6216856;23;20436;-85
2023/02/08 01:40:13;;;;;;;2.60;2.40;;;20.00;55.90;;;;;;6217058;23;20420;-85
2023/02/08 01:42:40;;;;;;;2.27;2.07;;;20.20;56.10;;;;;;6216841;23;20488;-86
2023/02/08 01:45:24;;;;;;;2.90;2.70;;;20.00;55.90;;;;;;6216449;23;20404;-85
2023/02/08 01:47:56;;;;;;;2.67;2.47;;;20.00;55.90;;;;;;6214509;23;20412;-85
2023/02/08 01:50:26;;;;;;;2.70;2.50;;;20.00;55.90;;;;;;6217041;23;20382;-85
2023/02/08 01:52:53;;;;;;;2.30;2.10;;;20.00;55.90;;;;;;6216988;23;20394;-85
2023/02/08 01:55:25;;;;;;;2.20;2.10;;;20.00;55.90;;;;;;6216689;23;20452;-85
2023/02/08 01:57:56;;;;;;;2.73;2.53;;;20.00;55.90;;;;;;6216802;23;20394;-85
2023/02/08 02:00:24;;;;;;;2.47;2.20;;;19.90;55.80;;;;;;6216644;23;20425;-85
2023/02/08 02:02:55;;;;;;;2.60;2.40;;;19.90;55.80;;;;;;6216735;23;20398;-85
2023/02/08 02:05:24;;;;;;;2.40;2.20;;;20.00;55.80;;;;;;6216561;23;20386;-85
2023/02/08 02:07:53;;;;;;;2.10;2.00;;;19.90;55.80;;;;;;6216262;23;20477;-85
2023/02/08 02:10:25;;;;;;;2.33;2.23;;;19.90;55.80;;;;;;6217146;23;20402;-85
2023/02/08 02:12:53;;;;;;;1.97;1.87;;;19.90;55.80;;;;;;6216966;23;20473;-85
2023/02/08 02:15:20;;;;;;;2.47;2.27;;;19.90;55.80;;;;;;6216762;23;20450;-86
2023/02/08 02:17:47;;;;;;;2.70;2.50;;;19.90;55.80;;;;;;6216869;23;20720;-85
2023/02/08 02:20:23;;;;;;;2.20;2.07;;;19.90;55.80;;;;;;6217213;23;20407;-85
2023/02/08 02:23:23;;;;;;;2.03;1.93;;;19.90;55.70;;;;;;6216722;23;20397;-86
2023/02/08 02:26:27;;;;;;;2.23;2.07;;;19.90;55.80;;;;;;6216694;23;20473;-85
2023/02/08 02:29:23;;;;;;;2.73;2.53;;;19.90;55.70;;;;;;6139817;23;20401;-85
2023/02/08 02:32:12;;;;;;;2.40;2.20;;;19.90;55.80;;;;;;6216984;23;20390;-91
2023/02/08 02:34:44;;;;;;;2.30;2.20;;;20.00;55.80;;;;;;6185640;23;20889;-85
2023/02/08 02:37:23;;;;;;;3.17;2.87;;;20.10;55.90;;;;;;6216402;23;20433;-90
2023/02/08 02:39:59;;;;;;;2.67;2.47;;;19.80;55.70;;;;;;6218933;23;20460;-86
2023/02/08 02:45:30;;;;;;;4.00;2.43;;;19.80;55.60;;;;;;6232568;23;20436;-85
2023/02/08 02:48:05;;;;;;;2.50;2.30;;;19.80;55.70;;;;;;6221846;23;20708;-87
2023/02/08 02:50:36;;;;;;;2.43;2.23;;;19.80;55.60;;;;;;6221240;23;20872;-85
2023/02/08 02:53:11;;;;;;;2.60;2.40;;;19.80;55.60;;;;;;6218663;23;20390;-86
2023/02/08 02:55:43;;;;;;;3.10;2.50;;;19.80;55.60;;;;;;6218155;23;20940;-85
2023/02/08 02:58:13;;;;;;;2.80;2.60;;;19.80;55.60;;;;;;6218872;23;20394;-85
2023/02/08 03:00:40;;;;;;;3.17;2.97;;;19.80;55.60;;;;;;6218856;23;20393;-85
2023/02/08 03:03:17;;;;;;;2.37;2.17;;;19.80;55.60;;;;;;6219651;23;20408;-84
2023/02/08 03:05:44;;;;;;;2.47;2.27;;;19.80;55.60;;;;;;6218438;23;20390;-84
2023/02/08 03:08:36;;;;;;;3.33;2.40;;;19.80;55.60;;;;;;6217959;23;20398;-85
2023/02/08 03:11:14;;;;;;;2.43;2.23;;;19.80;55.60;;;;;;6194125;23;20405;-85
2023/02/08 03:13:56;;;;;;;2.60;2.40;;;19.80;55.60;;;;;;6218393;23;20397;-85
2023/02/08 03:16:31;;;;;;;3.20;2.40;;;19.80;55.60;;;;;;6218296;23;20459;-85
2023/02/08 03:19:07;;;;;;;3.00;2.80;;;19.70;55.60;;;;;;6218201;23;20404;-85
2023/02/08 03:21:41;;;;;;;2.57;2.40;;;19.80;55.60;;;;;;6217908;23;20894;-85
2023/02/08 03:24:22;;;;;;;2.50;2.30;;;19.80;55.60;;;;;;6218801;23;20417;-85
2023/02/08 03:26:55;;;;;;;2.67;2.47;;;19.80;55.60;;;;;;6218110;23;20407;-85
2023/02/08 03:29:31;;;;;;;2.33;2.13;;;19.70;55.50;;;;;;6218026;23;20392;-85
2023/02/08 03:32:02;;;;;;;2.90;2.70;;;19.70;55.50;;;;;;6219196;23;20382;-86
2023/02/08 03:34:39;;;;;;;2.60;2.40;;;19.70;55.50;;;;;;6218538;23;20473;-85
2023/02/08 03:37:13;;;;;;;2.60;2.40;;;19.70;55.50;;;;;;6217814;23;20453;-85
2023/02/08 03:39:40;;;;;;;2.30;2.10;;;19.70;55.50;;;;;;6217610;23;20393;-85
2023/02/08 03:42:12;;;;;;;2.17;1.97;;;19.70;55.50;;;;;;6217610;23;20402;-85
2023/02/08 03:44:42;;;;;;;2.40;2.20;;;19.70;55.50;;;;;;6217633;23;20521;-85
2023/02/08 03:47:16;;;;;;;2.30;2.10;;;19.70;55.50;;;;;;6217205;23;20390;-85
2023/02/08 03:49:46;;;;;;;2.60;2.40;;;19.70;55.50;;;;;;6217466;23;20396;-85
2023/02/08 03:52:12;;;;;;;2.73;2.53;;;19.70;55.40;;;;;;6217495;23;20394;-85
2023/02/08 03:58:06;;;;;;;2.60;2.40;;;19.70;55.40;;;;;;6217227;23;20856;-85
2023/02/08 04:00:37;;;;;;;3.00;2.80;;;19.70;55.50;;;;;;6217450;23;20382;-91
2023/02/08 04:03:10;;;;;;;2.20;2.07;;;19.70;55.50;;;;;;6217085;23;20389;-85
2023/02/08 04:05:39;;;;;;;2.50;2.30;;;19.70;55.50;;;;;;6217751;23;20472;-85
2023/02/08 04:08:05;;;;;;;2.80;2.50;;;19.70;55.50;;;;;;6216971;23;20402;-85
2023/02/08 04:10:32;;;;;;;2.30;2.10;;;19.70;55.40;;;;;;6216943;23;20395;-85
2023/02/08 04:12:59;;;;;;;2.40;2.20;;;19.60;55.40;;;;;;6217104;23;20922;-85
2023/02/08 04:15:26;;;;;;;2.93;2.60;;;19.60;55.40;;;;;;6217089;23;20940;-92
2023/02/08 04:17:53;;;;;;;2.53;2.33;;;19.60;55.40;;;;;;6217245;23;20725;-85
2023/02/08 04:20:20;;;;;;;2.50;2.40;;;19.70;55.40;;;;;;6217148;23;20412;-85
2023/02/08 04:22:48;;;;;;;2.20;2.10;;;19.80;55.50;;;;;;6217134;23;20406;-85
2023/02/08 04:25:16;;;;;;;2.77;2.57;;;19.60;55.40;;;;;;6217170;23;20488;-85
2023/02/08 04:27:42;;;;;;;2.47;2.27;;;19.60;55.30;;;;;;6216730;23;20896;-85
2023/02/08 04:30:10;;;;;;;2.90;2.70;;;19.80;55.50;;;;;;6217059;23;20404;-86
2023/02/08 04:32:37;;;;;;;2.13;2.00;;;19.60;55.30;;;;;;6217479;23;20406;-85
2023/02/08 04:35:05;;;;;;;2.80;2.60;;;19.60;55.30;;;;;;6216585;23;20394;-85
2023/02/08 04:37:31;;;;;;;2.80;2.60;;;19.60;55.30;;;;;;6216663;23;20433;-85
2023/02/08 04:39:59;;;;;;;2.57;2.37;;;19.60;55.30;;;;;;6217016;23;20402;-85
2023/02/08 04:42:26;;;;;;;2.50;2.37;;;19.60;55.30;;;;;;6216974;23;20409;-85
2023/02/08 04:44:53;;;;;;;2.90;2.70;;;19.60;55.30;;;;;;6216932;23;20401;-85
2023/02/08 04:47:20;;;;;;;2.20;2.10;;;19.60;55.30;;;;;;6216888;23;20402;-85
2023/02/08 04:49:46;;;;;;;2.20;2.07;;;19.50;55.30;;;;;;6216508;23;20405;-85
2023/02/08 04:52:13;;;;;;;2.63;2.47;;;19.60;55.30;;;;;;6216840;23;20404;-85
2023/02/08 04:54:40;;;;;;;2.83;2.63;;;19.60;55.30;;;;;;6217182;23;20409;-85
2023/02/08 04:57:09;;;;;;;3.20;3.00;;;19.60;55.30;;;;;;6216393;23;20445;-85
2023/02/08 04:59:37;;;;;;;2.63;2.43;;;19.60;55.30;;;;;;6216728;23;20406;-85
2023/02/08 05:02:03;;;;;;;2.43;2.23;;;19.50;55.20;;;;;;6216739;23;20420;-86
2023/02/08 05:04:30;;;;;;;2.57;2.37;;;19.60;55.30;;;;;;6216280;23;20880;-85
2023/02/08 05:06:57;;;;;;;2.70;2.10;;;19.60;55.30;;;;;;6216669;23;20406;-85
2023/02/08 05:09:24;;;;;;;2.47;2.27;;;19.50;55.20;;;;;;6216409;23;20402;-86
2023/02/08 05:11:50;;;;;;;2.60;2.40;;;19.50;55.20;;;;;;6216284;23;20409;-85
2023/02/08 05:14:18;;;;;;;2.10;2.00;;;19.50;55.30;;;;;;6216671;23;20402;-85
2023/02/08 05:16:45;;;;;;;2.83;2.63;;;19.50;55.30;;;;;;6216466;23;20446;-85
2023/02/08 05:19:13;;;;;;;2.73;2.53;;;19.50;55.30;;;;;;6216258;23;20398;-90
2023/02/08 05:21:40;;;;;;;2.63;2.43;;;19.50;55.30;;;;;;6216616;23;20727;-85
2023/02/08 05:24:11;;;;;;;2.93;2.73;;;19.50;55.30;;;;;;6216241;23;20398;-85
2023/02/08 05:26:38;;;;;;;2.23;2.10;;;19.50;55.30;;;;;;6216272;23;20487;-85
2023/02/08 05:29:05;;;;;;;3.30;3.10;;;19.50;55.30;;;;;;6216179;23;20410;-85
2023/02/08 05:31:33;;;;;;;2.63;2.43;;;19.50;55.30;;;;;;6216595;23;20488;-91
2023/02/08 05:34:00;;;;;;;2.20;2.03;;;19.50;55.20;;;;;;6216814;23;20431;-85
2023/02/08 05:36:26;;;;;;;2.90;2.70;;;19.50;55.30;;;;;;6216378;23;20437;-85
2023/02/08 05:38:53;;;;;;;2.20;2.00;;;19.50;55.30;;;;;;6216215;23;20438;-85
2023/02/08 05:41:20;;;;;;;2.57;2.37;;;19.50;55.30;;;;;;6216429;23;20402;-85
2023/02/08 05:43:47;;;;;;;2.40;2.20;;;19.40;55.10;;;;;;6216363;23;20402;-86
2023/02/08 05:46:14;;;;;;;2.60;2.40;;;19.50;55.30;;;;;;6216251;23;20501;-86
2023/02/08 05:48:43;;;;;;;3.00;2.80;;;19.50;55.20;;;;;;6216398;23;20403;-85
2023/02/08 05:51:10;;;;;;;2.33;2.13;;;19.50;55.20;;;;;;6216425;23;20406;-85
2023/02/08 05:53:36;;;;;;;2.47;2.30;;;19.70;55.40;;;;;;6216375;23;20701;-86
2023/02/08 05:56:04;;;;;;;2.47;2.37;;;19.40;55.10;;;;;;6216294;23;20536;-86
2023/02/08 05:58:31;;;;;;;3.03;2.83;;;19.40;55.10;;;;;;6216377;23;20402;-85
2023/02/08 06:00:57;;;;;;;3.07;2.77;;;19.40;55.10;;;;;;6216367;23;20791;-85
2023/02/08 06:03:24;;;;;;;2.57;2.37;;;19.60;55.30;;;;;;6215970;23;20413;-86
2023/02/08 06:05:52;;;;;;;2.97;2.77;;;19.40;55.10;;;;;;6216260;23;20398;-86
2023/02/08 06:08:19;;;;;;;2.33;2.23;;;19.40;55.10;;;;;;6216303;23;20401;-86
2023/02/08 06:10:48;;;;;;;2.90;2.70;;;19.40;55.10;;;;;;6216583;23;20425;-85
2023/02/08 06:13:15;;;;;;;2.90;2.70;;;19.40;55.10;;;;;;6215994;23;20484;-86
2023/02/08 06:15:42;;;;;;;3.17;2.87;;;19.40;55.10;;;;;;6215830;23;20947;-86
2023/02/08 06:18:09;;;;;;;2.47;2.27;;;19.40;55.10;;;;;;6217674;23;20452;-85
2023/02/08 06:20:36;;;;;;;2.50;2.30;;;19.40;55.10;;;;;;6218371;23;20412;-85
2023/02/08 06:23:04;;;;;;;2.97;2.67;;;19.40;55.10;;;;;;6218302;23;20492;-86
2023/02/08 06:25:31;;;;;;;2.87;2.67;;;19.40;55.10;;;;;;6218344;23;20421;-86
2023/02/08 06:27:58;;;;;;;2.40;2.23;;;19.40;55.10;;;;;;6218318;23;20405;-86
2023/02/08 06:30:28;;;;;;;2.80;2.60;;;19.40;55.10;;;;;;6218190;23;20408;-84
2023/02/08 06:32:55;;;;;;;2.63;2.43;;;19.40;55.10;;;;;;6218106;23;20394;-84
2023/02/08 06:35:21;;;;;;;2.80;2.60;;;19.40;55.10;;;;;;6217826;23;20877;-86
2023/02/08 06:37:48;;;;;;;2.60;2.40;;;19.40;55.10;;;;;;6217709;23;20456;-90
2023/02/08 06:43:39;;;;;;;3.07;2.87;;;19.40;55.10;;;;;;6218217;23;20447;-85
2023/02/08 06:46:07;;;;;;;2.90;2.70;;;19.30;55.10;;;;;;6218348;23;20413;-85
2023/02/08 06:48:34;;;;;;;2.77;2.57;;;19.30;55.70;;;;;;6217612;23;20911;-84
2023/02/08 06:51:01;;;;;;;2.67;2.47;;;19.30;55.00;;;;;;6218063;23;20402;-86
2023/02/08 06:53:28;;;;;;;2.17;2.07;;;19.30;55.10;;;;;;6218179;23;20730;-92
2023/02/08 06:55:55;;;;;;;7.20;2.90;;;19.30;55.10;;;;;;6217958;23;20492;-86
2023/02/08 06:58:22;;;;;;;3.10;2.80;;;19.30;55.00;;;;;;6217690;23;20442;-86
2023/02/08 07:00:50;;;;;;;2.80;2.30;;;19.30;55.00;;;;;;6217510;23;20887;-86
2023/02/08 07:03:17;;;;;;;2.63;2.43;;;19.30;55.00;;;;;;6217959;23;20431;-89
2023/02/08 07:05:44;;;;;;;2.47;2.30;;;19.30;55.10;;;;;;6217878;23;20481;-87
2023/02/08 07:08:11;;;;;;;2.77;2.57;;;19.30;55.20;;;;;;6217958;23;20877;-86
2023/02/08 07:10:39;;;;;;;3.57;2.80;;;19.40;55.30;;;;;;6217860;23;20409;-90
2023/02/08 07:13:06;;;;;;;5.37;2.57;;;19.40;55.40;;;;;;6218335;23;20402;-86
2023/02/08 07:15:34;;;;;;;3.07;2.70;;;19.40;55.40;;;;;;6217622;23;20414;-86
2023/02/08 07:18:02;;;;;;;3.03;2.70;;;19.40;55.40;;;;;;6217715;23;20759;-89
2023/02/08 07:20:29;;;;;;;2.83;2.60;;;19.40;55.40;;;;;;6217748;23;20503;-86
2023/02/08 07:22:56;;;;;;;3.73;3.00;;;19.40;55.40;;;;;;6218134;23;20407;-86
2023/02/08 07:25:22;;;;;;;2.50;2.30;;;19.40;55.50;;;;;;6217307;23;20441;-87
2023/02/08 07:27:49;;;;;;;4.00;2.90;;;19.40;55.50;;;;;;6217485;23;20420;-88
2023/02/08 07:30:16;;;;;;;2.30;2.10;;;19.40;55.60;;;;;;6216750;23;20409;-86
2023/02/08 07:32:44;;;;;;;3.40;2.83;;;19.40;55.60;;;;;;6217699;23;20786;-86
2023/02/08 07:35:12;;;;;;;2.67;2.47;;;19.40;55.70;;;;;;6217550;23;20427;-86
2023/02/08 07:37:39;;;;;;;3.20;2.90;;;19.40;55.70;;;;;;6217141;23;20460;-86
2023/02/08 07:40:07;;;;;;;2.87;2.67;;;19.60;55.90;;;;;;6217608;23;20408;-89
2023/02/08 07:42:34;;;;;;;2.83;2.63;;;19.30;55.70;;;;;;6218170;23;20492;-89
2023/02/08 07:45:00;;;;;;;5.70;2.70;;;19.30;55.70;;;;;;6217649;23;20412;-86
2023/02/08 07:47:27;;;;;;;2.77;2.57;;;19.30;55.70;;;;;;6217460;23;20773;-86
2023/02/08 07:49:54;;;;;;;2.80;2.60;;;19.40;55.80;;;;;;6217519;23;20408;-87
2023/02/08 07:52:22;;;;;;;2.80;2.60;;;19.30;55.70;;;;;;6218374;23;20513;-88
2023/02/08 07:54:49;;;;;;;2.83;2.63;;;19.40;55.70;;;;;;6217670;23;20406;-86
2023/02/08 08:00:37;;;;;;;3.13;2.83;;;19.30;55.60;;;;;;6217949;23;20436;-86
2023/02/08 08:03:04;;;;;;;8.70;3.03;;;19.50;55.80;;;;;;6217634;23;20719;-86
2023/02/08 08:05:31;;;;;;;2.60;2.40;;;19.50;55.80;;;;;;6217390;23;20485;-87
2023/02/08 08:07:59;;;;;;;2.97;2.50;;;19.30;55.60;;;;;;6217441;23;20433;-89
2023/02/08 08:10:26;;;;;;;8.17;2.40;;;19.50;55.80;;;;;;6217252;23;20429;-87
2023/02/08 08:12:53;;;;;;;2.73;2.50;;;19.30;55.60;;;;;;6217147;23;20448;-88
2023/02/08 08:15:20;;;;;;;3.40;3.10;;;19.40;55.50;;;;;;6216832;23;20493;-87
2023/02/08 08:17:46;;;;;;;2.87;2.67;;;19.40;55.50;;;;;;6216784;23;20446;-87
2023/02/08 08:20:13;;;;;;;4.20;2.70;;;19.40;55.40;;;;;;6217328;23;20484;-87
2023/02/08 08:22:40;;;;;;;3.30;3.10;;;19.40;55.50;;;;;;6217100;23;20400;-86
2023/02/08 08:25:08;;;;;;;3.77;2.53;;;19.40;55.70;;;;;;6216781;23;20399;-87
2023/02/08 08:27:36;;;;;;;4.63;3.30;;;19.40;55.70;;;;;;6216798;23;20403;-88
2023/02/08 08:30:04;;;;;;;4.87;3.20;;;19.40;55.80;;;;;;6217251;23;20402;-86
2023/02/08 08:32:30;;;;;;;4.90;3.63;;;19.50;56.40;;;;;;6217512;23;20473;-95
2023/02/08 08:34:57;;;;;;;4.20;3.80;;;19.60;56.90;;;;;;6217013;23;20412;-90
2023/02/08 08:37:24;;;;;;;4.20;3.60;;;19.60;56.20;;;;;;6219482;23;20541;-95
2023/02/08 08:39:51;;;;;;;5.10;4.27;;;19.70;56.50;;;;;;6217145;23;20416;-87
2023/02/08 08:42:19;;;;;;;5.23;4.00;;;19.70;55.10;;;;;;6216553;23;20924;-91
2023/02/08 08:44:46;;;;;;;5.07;4.10;;;19.80;55.70;;;;;;6217123;23;20398;-90
2023/02/08 08:47:13;;;;;;;5.00;4.50;;;19.90;56.20;;;;;;6216541;23;20494;-87
2023/02/08 08:49:41;;;;;;;6.97;4.63;;;20.00;56.10;;;;;;6216886;23;20402;-94
2023/02/08 08:52:08;;;;;;;5.43;4.77;;;20.10;56.70;;;;;;6216977;23;20413;-86
2023/02/08 08:54:35;;;;;;;4.97;4.30;;;20.20;56.00;;;;;;6216925;23;20406;-90
2023/02/08 08:57:02;;;;;;;6.37;4.67;;;20.30;55.60;;;;;;6217004;23;20453;-88
2023/02/08 08:59:31;;;;;;;5.13;4.70;;;20.40;55.30;;;;;;6216705;23;20428;-89
2023/02/08 09:01:58;;;;;;;6.20;4.83;;;20.50;55.60;;;;;;6216675;23;20413;-87
2023/02/08 09:04:24;;;;;;;5.13;4.67;;;20.60;55.50;;;;;;6216251;23;20485;-85
2023/02/08 09:06:52;;;;;;;6.97;5.03;;;20.60;55.10;;;;;;6216578;23;20416;-85
2023/02/08 09:09:20;;;;;;;4.33;3.80;;;20.80;55.70;;;;;;6216639;23;20710;-86
2023/02/08 09:11:47;;;;;;;3.77;3.47;;;20.90;54.90;;;;;;6217632;23;20425;-86
2023/02/08 09:14:14;;;;;;;8.47;4.20;;;21.20;54.50;;;;;;6216680;23;20410;-87
2023/02/08 09:16:46;;;;;;;4.43;3.97;;;21.20;54.30;;;;;;6216286;23;20490;-88
2023/02/08 09:19:13;;;;;;;3.90;3.60;;;21.30;55.20;;;;;;6216696;23;20405;-86
2023/02/08 09:21:40;;;;;;;5.80;4.00;;;21.60;54.70;;;;;;6216476;23;20409;-83
2023/02/08 09:24:07;;;;;;;4.10;3.70;;;21.90;53.80;;;;;;6216468;23;20402;-84
2023/02/08 09:26:34;;;;;;;8.90;4.00;;;22.10;53.80;;;;;;6216451;23;20719;-85
2023/02/08 09:29:01;;;;;;;4.00;3.70;;;22.30;53.20;;;;;;6216423;23;20402;-89
2023/02/08 09:31:30;;;;;;;4.33;4.00;;;22.40;53.00;;;;;;6216338;23;20435;-86
2023/02/08 09:34:00;;;;;;;4.37;3.97;;;22.40;52.60;;;;;;6216414;23;20425;-86
2023/02/08 09:36:29;;;;;;;3.53;3.23;;;22.40;52.50;;;;;;6216519;23;20422;-83
2023/02/08 09:39:00;;;;;;;3.83;3.23;;;22.40;52.70;;;;;;6215679;23;20544;-84
2023/02/08 09:41:41;;;;;;;4.10;3.70;;;22.40;52.90;;;;;;6216317;23;20456;-85
2023/02/08 09:44:18;;;;;;;12.43;3.80;;;22.70;52.40;;;;;;6216017;23;20399;-86
2023/02/08 09:46:51;;;;;;;3.40;3.07;;;23.10;52.30;;;;;;6216420;23;20391;-87
2023/02/08 09:49:26;;;;;;;3.23;2.97;;;23.60;52.00;;;;;;6216575;23;20932;-88
2023/02/08 09:51:58;;;;;;;9.20;3.97;;;24.00;51.60;;;;;;6216272;23;20486;-91
2023/02/08 09:54:32;;;;;;;3.73;3.27;;;24.40;51.20;;;;;;6216409;23;20409;-90
2023/02/08 09:57:01;;;;;;;3.77;3.47;;;24.70;51.10;;;;;;6216262;23;20394;-90
2023/02/08 09:59:32;;;;;;;3.77;3.47;;;25.00;50.70;;;;;;6216278;23;20448;-90
2023/02/08 10:02:04;;;;;;;3.47;3.13;;;25.30;50.50;;;;;;6216155;23;20393;-90
2023/02/08 10:04:40;;;;;;;6.40;3.07;;;25.70;50.40;;;;;;6216352;23;20399;-88
2023/02/08 10:07:10;;;;;;;3.67;3.37;;;26.10;49.90;;;;;;6216336;23;20390;-87
2023/02/08 10:09:37;;;;;;;4.50;3.70;;;26.40;49.70;;;;;;6216185;23;20404;-87
2023/02/08 10:12:14;;;;;;;3.13;2.93;;;26.70;49.30;;;;;;6216176;23;20406;-87
2023/02/08 10:14:54;;;;;;;4.63;3.60;;;27.00;49.00;;;;;;6216323;23;20418;-89
2023/02/08 10:18:00;;;;;;;3.60;3.30;;;27.20;49.20;;;;;;6215844;23;20437;-88
2023/02/08 10:20:39;;;;;;;3.60;3.03;;;27.60;48.30;;;;;;6180284;23;20784;-82
2023/02/08 10:23:19;;;;;;;3.50;2.70;;;27.80;47.90;;;;;;6216174;23;20396;-83
2023/02/08 10:29:25;;;;;;;2.93;2.73;;;28.30;47.20;;;;;;6215793;23;20499;-84
2023/02/08 10:32:22;;;;;;;3.53;3.20;;;28.20;47.30;;;;;;6215593;23;20406;-84
2023/02/08 10:34:53;;;;;;;3.67;3.37;;;28.40;47.00;;;;;;6189511;23;20394;-84
2023/02/08 10:37:27;;;;;;;3.77;3.13;;;28.40;47.00;;;;;;6215332;23;20939;-88
2023/02/08 10:39:57;;;;;;;3.47;3.17;;;28.60;46.70;;;;;;6215805;23;20416;-86
2023/02/08 10:42:27;;;;;;;3.33;3.03;;;28.50;46.80;;;;;;6215667;23;20490;-86
2023/02/08 10:45:02;;;;;;;2.77;2.57;;;28.40;46.90;;;;;;6215698;23;20711;-87
2023/02/08 10:47:42;;;;;;;4.30;2.93;;;27.80;47.50;;;;;;6215785;23;20392;-86
2023/02/08 10:50:19;;;;;;;3.57;3.13;;;27.30;48.10;;;;;;6215793;23;20697;-86
2023/02/08 10:52:48;;;;;;;5.63;3.23;;;26.80;48.70;;;;;;6215497;23;20872;-86
2023/02/08 10:55:16;;;;;;;4.33;2.87;;;26.30;49.40;;;;;;6215618;23;20975;-86
2023/02/08 10:57:43;;;;;;;2.50;2.30;;;25.90;49.90;;;;;;6215672;23;20437;-86
2023/02/08 11:00:18;;;;;;;2.60;2.40;;;25.60;50.40;;;;;;6215508;23;20406;-86
2023/02/08 11:02:48;;;;;;;3.10;2.90;;;25.40;50.70;;;;;;6216117;23;20399;-87
2023/02/08 11:05:17;;;;;;;3.43;3.17;;;25.10;51.00;;;;;;6217309;23;20484;-86
2023/02/08 11:07:44;;;;;;;2.70;2.50;;;24.90;51.90;;;;;;6217860;23;20400;-86
2023/02/08 11:10:23;;;;;;;2.90;2.60;;;24.70;51.60;;;;;;6217926;23;20766;-87
2023/02/08 11:12:59;;;;;;;3.10;2.20;;;24.70;51.70;;;;;;6217916;23;20461;-84
2023/02/08 11:15:30;;;;;;;2.77;2.47;;;24.50;51.90;;;;;;6217861;23;20398;-84
2023/02/08 11:17:59;;;;;;;3.13;2.73;;;24.40;52.10;;;;;;6217747;23;20522;-84
2023/02/08 11:20:32;;;;;;;3.10;2.90;;;24.20;52.20;;;;;;6217787;23;20400;-83
2023/02/08 11:22:59;;;;;;;3.27;2.97;;;24.20;52.40;;;;;;6217878;23;20411;-84
2023/02/08 11:25:37;;;;;;;2.33;2.10;;;24.10;52.40;;;;;;6217378;23;20491;-89
2023/02/08 11:28:05;;;;;;;3.40;2.37;;;24.10;52.40;;;;;;6217385;23;20392;-83
2023/02/08 11:30:33;;;;;;;3.50;2.40;;;24.10;52.60;;;;;;6217680;23;20399;-84
2023/02/08 11:33:17;;;;;;;3.00;2.80;;;24.00;52.60;;;;;;6217323;23;20937;-89
2023/02/08 11:36:02;;;;;;;3.40;2.70;;;24.00;52.70;;;;;;6217723;23;20391;-84
2023/02/08 11:38:30;;;;;;;2.40;2.20;;;24.00;52.70;;;;;;6217082;23;20458;-83
2023/02/08 11:41:02;;;;;;;2.23;2.10;;;24.00;52.70;;;;;;6217167;23;20407;-84
2023/02/08 11:43:31;;;;;;;2.77;2.57;;;24.00;52.70;;;;;;6217881;23;20397;-84
2023/02/08 11:46:01;;;;;;;2.60;2.40;;;23.90;52.70;;;;;;6217596;23;20409;-84
2023/02/08 11:48:38;;;;;;;2.83;2.37;;;23.90;52.80;;;;;;6217481;23;20407;-84
2023/02/08 11:51:05;;;;;;;2.73;2.53;;;23.80;53.20;;;;;;6217161;23;20388;-84
2023/02/08 11:53:35;;;;;;;3.17;2.97;;;23.70;53.30;;;;;;6217445;23;20421;-84
2023/02/08 11:56:14;;;;;;;2.63;2.43;;;23.60;53.30;;;;;;6217628;23;20486;-84
2023/02/08 11:58:41;;;;;;;2.70;2.50;;;23.60;53.50;;;;;;6217356;23;20764;-83
2023/02/08 12:01:19;;;;;;;2.83;2.63;;;23.50;53.60;;;;;;6217353;23;20399;-84
2023/02/08 12:03:49;;;;;;;2.33;2.13;;;23.50;53.70;;;;;;6217418;23;20445;-83
2023/02/08 12:06:29;;;;;;;2.30;2.10;;;23.40;53.80;;;;;;6217359;23;20453;-83
2023/02/08 12:09:03;;;;;;;2.47;2.27;;;23.40;53.80;;;;;;6217374;23;20479;-83
2023/02/08 12:11:39;;;;;;;4.00;2.47;;;23.30;53.80;;;;;;6217356;23;20386;-83
2023/02/08 12:14:22;;;;;;;2.60;2.40;;;23.30;53.80;;;;;;6217508;23;20391;-83
2023/02/08 12:17:11;;;;;;;2.57;2.40;;;23.30;53.80;;;;;;6217317;23;20394;-84
2023/02/08 12:20:02;;;;;;;2.60;2.40;;;23.30;53.80;;;;;;6218192;23;20515;-84
2023/02/08 12:22:30;;;;;;;2.93;2.73;;;23.20;53.90;;;;;;6217345;23;20422;-84
2023/02/08 12:25:10;;;;;;;2.53;2.33;;;23.30;53.90;;;;;;6217217;23;20882;-83
2023/02/08 12:27:45;;;;;;;2.90;2.57;;;23.20;53.80;;;;;;6216870;23;20387;-84
2023/02/08 12:30:19;;;;;;;2.87;2.47;;;23.20;54.00;;;;;;6216803;23;20897;-84
2023/02/08 12:33:02;;;;;;;1.97;1.80;;;23.10;53.90;;;;;;6217161;23;20474;-83
2023/02/08 12:36:04;;;;;;;2.10;1.90;;;23.10;54.00;;;;;;6217428;23;20434;-83
2023/02/08 12:41:41;;;;;;;2.10;1.90;;;23.10;54.00;;;;;;6217141;23;20361;-83
2023/02/08 12:44:19;;;;;;;2.90;2.70;;;23.10;54.10;;;;;;6216978;23;20386;-83
2023/02/08 12:47:03;;;;;;;5.10;2.37;;;23.10;54.00;;;;;;6217312;23;20387;-83
2023/02/08 12:49:47;;;;;;;2.43;2.23;;;23.10;54.10;;;;;;6216597;23;20397;-83
2023/02/08 12:52:25;;;;;;;2.60;2.40;;;23.10;54.10;;;;;;6216928;23;20397;-83
2023/02/08 12:54:56;;;;;;;2.43;2.23;;;23.10;54.00;;;;;;6216913;23;20391;-83
2023/02/08 12:57:26;;;;;;;2.70;2.50;;;23.10;54.00;;;;;;6216882;23;20399;-83
2023/02/08 13:00:00;;;;;;;3.30;2.23;;;23.10;54.00;;;;;;6217382;23;20941;-84
2023/02/08 13:02:32;;;;;;;3.40;2.47;;;23.10;54.00;;;;;;6216844;23;20721;-84
2023/02/08 13:05:04;;;;;;;3.03;2.60;;;23.10;54.00;;;;;;6216824;23;20478;-83
2023/02/08 13:07:35;;;;;;;3.00;1.93;;;23.10;54.00;;;;;;6216806;23;20395;-83
2023/02/08 13:10:08;;;;;;;4.13;2.53;;;23.10;54.00;;;;;;6216767;23;20387;-90
2023/02/08 13:12:38;;;;;;;2.27;2.00;;;23.10;54.00;;;;;;6216424;23;20896;-84
2023/02/08 13:15:14;;;;;;;1.87;1.77;;;23.10;54.00;;;;;;6216632;23;20406;-83
2023/02/08 13:17:45;;;;;;;2.57;1.93;;;23.00;54.00;;;;;;6216871;23;20466;-85
2023/02/08 13:20:26;;;;;;;1.97;1.87;;;23.00;54.00;;;;;;6217019;23;20395;-83
2023/02/08 13:22:57;;;;;;;2.10;2.00;;;23.10;54.00;;;;;;6216621;23;20718;-83
2023/02/08 13:25:29;;;;;;;2.37;1.93;;;23.00;53.90;;;;;;6216273;23;20385;-84